Time;durP1;ratioP1;P1;durP2;ratioP2;P2;SDS_P1;SDS_P2;PMS_P1;PMS_P2;Temp;Humidity;BMP_temperature;BMP_pressure;BME280_temperature;BME280_humidity;BME280_pressure;Samples;Min_cycle;Max_cycle;Signal;HPM_P1;HPM_P2
2023/07/17 00:00:19;;;;;;;5.38;3.47;;;;;;;;;;5118359;28;20043;-84
2023/07/17 00:02:46;;;;;;;3.15;2.95;;;;;;;;;;5118421;28;20183;-84
2023/07/17 00:05:14;;;;;;;5.70;3.30;;;;;;;;;;5118444;28;20044;-82
2023/07/17 00:07:41;;;;;;;8.85;4.00;;;;;;;;;;5117314;28;20051;-82
2023/07/17 00:10:09;;;;;;;5.03;3.92;;;;;;;;;;5129684;28;20047;-82
2023/07/17 00:12:38;;;;;;;4.03;3.38;;;;;;;;;;5116956;28;20056;-82
2023/07/17 00:15:05;;;;;;;8.05;3.58;;;;;;;;;;5115195;28;20194;-82
2023/07/17 00:17:33;;;;;;;7.30;3.40;;;;;;;;;;5116322;28;20403;-82
2023/07/17 00:20:01;;;;;;;4.03;3.08;;;;;;;;;;5116512;27;20059;-82
2023/07/17 00:22:30;;;;;;;4.43;3.38;;;;;;;;;;5115955;28;20495;-81
2023/07/17 00:24:57;;;;;;;6.03;3.28;;;;;;;;;;5115068;28;20506;-83
2023/07/17 00:27:25;;;;;;;6.75;3.42;;;;;;;;;;5115661;27;20044;-82
2023/07/17 00:29:52;;;;;;;6.93;3.88;;;;;;;;;;5116695;28;20052;-84
2023/07/17 00:32:20;;;;;;;6.53;3.67;;;;;;;;;;5116744;28;20048;-82
2023/07/17 00:34:47;;;;;;;5.38;3.35;;;;;;;;;;5116683;28;20044;-84
2023/07/17 00:37:14;;;;;;;3.97;3.60;;;;;;;;;;5116597;28;20051;-82
2023/07/17 00:39:41;;;;;;;5.40;3.55;;;;;;;;;;5116306;28;20056;-83
2023/07/17 00:42:09;;;;;;;4.10;3.70;;;;;;;;;;5116094;28;20073;-83
2023/07/17 00:44:38;;;;;;;7.43;3.88;;;;;;;;;;5115949;28;20052;-83
2023/07/17 00:47:05;;;;;;;9.50;3.67;;;;;;;;;;5115801;28;20048;-84
2023/07/17 00:49:33;;;;;;;4.95;3.72;;;;;;;;;;5115750;28;20475;-83
2023/07/17 00:52:01;;;;;;;4.90;3.47;;;;;;;;;;5116384;28;20051;-83
2023/07/17 00:54:28;;;;;;;6.15;3.33;;;;;;;;;;5117130;28;20414;-83
2023/07/17 00:56:57;;;;;;;7.70;3.88;;;;;;;;;;5116587;27;20055;-82
2023/07/17 00:59:25;;;;;;;6.15;3.85;;;;;;;;;;5116810;28;20077;-83
2023/07/17 01:01:52;;;;;;;3.75;3.38;;;;;;;;;;5114596;28;20117;-83
2023/07/17 01:04:19;;;;;;;6.72;3.63;;;;;;;;;;5115276;28;20473;-83
2023/07/17 01:06:47;;;;;;;4.95;3.75;;;;;;;;;;5115132;28;20093;-84
2023/07/17 01:09:16;;;;;;;7.65;3.75;;;;;;;;;;5115115;28;20043;-83
2023/07/17 01:11:43;;;;;;;5.63;3.42;;;;;;;;;;5116404;28;20054;-83
2023/07/17 01:14:17;;;;;;;6.97;3.80;;;;;;;;;;5116677;28;20040;-83
2023/07/17 01:16:46;;;;;;;5.53;3.15;;;;;;;;;;5114621;28;20051;-82
2023/07/17 01:19:13;;;;;;;7.15;3.25;;;;;;;;;;5116763;27;20509;-83
2023/07/17 01:21:44;;;;;;;5.50;3.63;;;;;;;;;;5115764;28;20469;-82
2023/07/17 01:24:11;;;;;;;6.03;3.80;;;;;;;;;;5114987;28;20052;-83
2023/07/17 01:26:38;;;;;;;8.02;3.70;;;;;;;;;;5114362;28;20048;-82
2023/07/17 01:29:05;;;;;;;11.90;4.10;;;;;;;;;;5114827;28;20092;-82
2023/07/17 01:31:33;;;;;;;7.72;4.10;;;;;;;;;;5115731;28;20051;-83
2023/07/17 01:34:00;;;;;;;8.35;3.88;;;;;;;;;;5114513;28;20075;-83
2023/07/17 01:36:27;;;;;;;7.60;3.60;;;;;;;;;;5112086;28;20567;-82
2023/07/17 01:38:55;;;;;;;10.05;4.13;;;;;;;;;;5114467;28;20047;-82
2023/07/17 01:41:23;;;;;;;6.35;3.85;;;;;;;;;;5114122;28;20047;-82
2023/07/17 01:43:50;;;;;;;5.75;3.75;;;;;;;;;;5113889;28;20047;-82
2023/07/17 01:46:17;;;;;;;6.20;4.15;;;;;;;;;;5116646;28;20553;-82
2023/07/17 01:48:45;;;;;;;3.88;3.45;;;;;;;;;;5116054;28;20047;-81
2023/07/17 01:51:12;;;;;;;4.70;3.38;;;;;;;;;;5113258;28;20047;-82
2023/07/17 01:53:40;;;;;;;5.45;3.72;;;;;;;;;;5113090;28;20039;-81
2023/07/17 01:56:07;;;;;;;5.50;3.53;;;;;;;;;;5112951;28;20060;-82
2023/07/17 01:58:34;;;;;;;5.53;3.40;;;;;;;;;;5114597;28;20047;-82
2023/07/17 02:01:03;;;;;;;5.63;4.15;;;;;;;;;;5112919;28;20615;-82
2023/07/17 02:03:31;;;;;;;3.85;3.40;;;;;;;;;;5114090;28;20056;-81
2023/07/17 02:05:58;;;;;;;5.85;3.80;;;;;;;;;;5112470;28;20535;-82
2023/07/17 02:08:26;;;;;;;3.67;3.10;;;;;;;;;;5113770;28;20051;-81
2023/07/17 02:10:53;;;;;;;3.70;3.35;;;;;;;;;;5112978;28;20101;-82
2023/07/17 02:13:20;;;;;;;6.18;3.85;;;;;;;;;;5112487;28;20055;-82
2023/07/17 02:15:47;;;;;;;6.00;3.60;;;;;;;;;;5113964;27;20052;-82
2023/07/17 02:18:15;;;;;;;6.65;3.80;;;;;;;;;;5113640;28;20513;-81
2023/07/17 02:20:42;;;;;;;6.25;3.95;;;;;;;;;;5112566;28;20048;-82
2023/07/17 02:23:10;;;;;;;6.07;3.88;;;;;;;;;;5112297;28;20141;-82
2023/07/17 02:25:37;;;;;;;4.28;3.38;;;;;;;;;;5113366;28;20067;-82
2023/07/17 02:28:04;;;;;;;5.43;3.75;;;;;;;;;;5112207;28;20413;-82
2023/07/17 02:30:31;;;;;;;4.57;3.78;;;;;;;;;;5112421;28;20048;-82
2023/07/17 02:32:59;;;;;;;5.75;3.80;;;;;;;;;;5113346;28;20040;-82
2023/07/17 02:35:26;;;;;;;4.35;3.95;;;;;;;;;;5113481;28;20051;-82
2023/07/17 02:37:53;;;;;;;6.15;4.00;;;;;;;;;;5112216;28;20146;-82
2023/07/17 02:40:21;;;;;;;4.00;3.60;;;;;;;;;;5112386;28;20108;-82
2023/07/17 02:42:48;;;;;;;5.68;4.32;;;;;;;;;;5113383;28;20105;-83
2023/07/17 02:45:15;;;;;;;5.80;4.25;;;;;;;;;;5112124;28;20154;-84
2023/07/17 02:47:42;;;;;;;5.20;4.30;;;;;;;;;;5112561;28;20082;-85
2023/07/17 02:50:10;;;;;;;5.80;3.90;;;;;;;;;;5112197;28;20048;-84
2023/07/17 02:52:37;;;;;;;5.20;3.83;;;;;;;;;;5112274;28;20477;-85
2023/07/17 02:55:05;;;;;;;6.47;3.88;;;;;;;;;;5113297;28;20043;-84
2023/07/17 02:57:33;;;;;;;4.22;3.90;;;;;;;;;;5113399;28;20112;-84
2023/07/17 03:00:14;;;;;;;7.18;4.13;;;;;;;;;;5111852;28;20391;-84
2023/07/17 03:02:43;;;;;;;5.50;3.90;;;;;;;;;;5112880;28;20499;-84
2023/07/17 03:05:10;;;;;;;5.22;4.15;;;;;;;;;;5113213;28;20108;-85
2023/07/17 03:07:42;;;;;;;8.68;4.68;;;;;;;;;;5111942;28;20134;-84
2023/07/17 03:10:10;;;;;;;7.03;4.50;;;;;;;;;;5112982;28;20492;-84
2023/07/17 03:12:37;;;;;;;9.52;4.55;;;;;;;;;;5111927;28;20044;-83
2023/07/17 03:15:05;;;;;;;8.98;4.28;;;;;;;;;;5111729;28;20526;-85
2023/07/17 03:17:32;;;;;;;5.97;4.22;;;;;;;;;;5111959;28;20434;-82
2023/07/17 03:20:00;;;;;;;6.28;4.90;;;;;;;;;;5111697;28;20521;-84
2023/07/17 03:22:27;;;;;;;6.82;4.45;;;;;;;;;;5112023;28;20127;-85
2023/07/17 03:24:55;;;;;;;8.05;4.80;;;;;;;;;;5114849;28;20070;-84
2023/07/17 03:27:23;;;;;;;9.10;5.10;;;;;;;;;;5111526;28;20407;-83
2023/07/17 03:29:50;;;;;;;7.53;4.93;;;;;;;;;;5111456;28;20122;-84
2023/07/17 03:32:17;;;;;;;7.03;4.80;;;;;;;;;;5111363;28;20104;-84
2023/07/17 03:34:44;;;;;;;7.72;4.68;;;;;;;;;;5111693;28;20120;-84
2023/07/17 03:37:12;;;;;;;11.60;5.40;;;;;;;;;;5112168;28;20052;-85
2023/07/17 03:39:39;;;;;;;8.73;5.30;;;;;;;;;;5112515;28;20051;-84
2023/07/17 03:42:10;;;;;;;10.23;5.07;;;;;;;;;;5112552;28;20047;-84
2023/07/17 03:44:38;;;;;;;7.75;5.60;;;;;;;;;;5111367;28;20427;-84
2023/07/17 03:47:09;;;;;;;8.77;5.60;;;;;;;;;;5111045;28;20458;-83
2023/07/17 03:49:36;;;;;;;10.10;5.75;;;;;;;;;;5113036;28;20043;-84
2023/07/17 03:52:04;;;;;;;7.30;5.47;;;;;;;;;;5111529;28;20079;-84
2023/07/17 03:54:33;;;;;;;7.05;5.25;;;;;;;;;;5111220;28;20501;-84
2023/07/17 03:57:00;;;;;;;8.60;5.80;;;;;;;;;;5111432;28;20058;-83
2023/07/17 03:59:27;;;;;;;5.97;5.13;;;;;;;;;;5111484;28;20134;-84
2023/07/17 04:01:54;;;;;;;12.48;7.32;;;;;;;;;;5111660;28;20100;-84
2023/07/17 04:04:22;;;;;;;10.30;7.20;;;;;;;;;;5112670;28;20052;-84
2023/07/17 04:06:49;;;;;;;21.80;7.20;;;;;;;;;;5112404;28;20071;-83
2023/07/17 04:09:16;;;;;;;19.90;8.30;;;;;;;;;;5111171;28;20476;-84
2023/07/17 04:11:46;;;;;;;16.02;8.48;;;;;;;;;;5111549;28;20112;-83
2023/07/17 04:14:14;;;;;;;11.30;7.25;;;;;;;;;;5112585;27;20423;-84
2023/07/17 04:16:42;;;;;;;8.38;5.95;;;;;;;;;;5111323;28;20043;-84
2023/07/17 04:19:09;;;;;;;14.88;6.30;;;;;;;;;;5111251;28;20048;-84
2023/07/17 04:21:36;;;;;;;7.93;6.00;;;;;;;;;;5111153;28;20083;-84
2023/07/17 04:24:04;;;;;;;8.15;6.55;;;;;;;;;;5111191;28;20487;-84
2023/07/17 04:26:31;;;;;;;12.35;6.38;;;;;;;;;;5111057;28;20063;-84
2023/07/17 04:28:58;;;;;;;7.22;6.05;;;;;;;;;;5112428;28;20039;-84
2023/07/17 04:31:25;;;;;;;8.00;6.10;;;;;;;;;;5111323;28;20047;-84
2023/07/17 04:33:53;;;;;;;13.43;6.10;;;;;;;;;;5110922;28;20100;-83
2023/07/17 04:36:20;;;;;;;10.48;5.65;;;;;;;;;;5112327;28;20106;-85
2023/07/17 04:38:48;;;;;;;13.80;6.18;;;;;;;;;;5115019;28;20047;-84
2023/07/17 04:41:16;;;;;;;7.25;5.65;;;;;;;;;;5115930;28;20453;-84
2023/07/17 04:43:44;;;;;;;10.63;6.40;;;;;;;;;;5114988;28;20050;-83
2023/07/17 04:46:11;;;;;;;7.45;6.38;;;;;;;;;;5115157;28;20176;-85
2023/07/17 04:48:38;;;;;;;11.00;6.18;;;;;;;;;;5114286;28;20089;-84
2023/07/17 04:51:06;;;;;;;13.38;6.55;;;;;;;;;;5114304;28;20043;-84
2023/07/17 04:53:34;;;;;;;13.02;6.25;;;;;;;;;;5114442;28;20108;-84
2023/07/17 04:56:01;;;;;;;9.20;6.10;;;;;;;;;;5115841;28;20380;-84
2023/07/17 04:58:32;;;;;;;7.78;5.90;;;;;;;;;;5119272;28;20051;-85
2023/07/17 05:01:00;;;;;;;11.50;5.85;;;;;;;;;;5120711;28;20073;-85
2023/07/17 05:03:27;;;;;;;6.80;5.25;;;;;;;;;;5125795;28;20047;-85
2023/07/17 05:05:55;;;;;;;10.00;5.68;;;;;;;;;;5122495;28;20047;-85
2023/07/17 05:08:22;;;;;;;10.07;5.70;;;;;;;;;;5120152;28;20047;-87
2023/07/17 05:10:56;;;;;;;9.60;5.70;;;;;;;;;;5118440;28;20048;-86
2023/07/17 05:13:23;;;;;;;7.50;4.97;;;;;;;;;;5118402;28;20116;-86
2023/07/17 05:15:51;;;;;;;8.55;5.78;;;;;;;;;;5118966;28;20039;-85
2023/07/17 05:18:18;;;;;;;11.68;5.70;;;;;;;;;;5119763;28;20051;-86
2023/07/17 05:20:46;;;;;;;7.78;5.30;;;;;;;;;;5117654;28;20047;-86
2023/07/17 05:23:14;;;;;;;9.75;4.90;;;;;;;;;;5118325;28;20067;-84
2023/07/17 05:25:42;;;;;;;6.20;5.40;;;;;;;;;;5120001;28;20062;-83
2023/07/17 05:28:09;;;;;;;5.32;4.57;;;;;;;;;;5120078;28;20096;-83
2023/07/17 05:30:37;;;;;;;6.18;4.72;;;;;;;;;;5119132;28;20111;-84
2023/07/17 05:33:04;;;;;;;7.38;4.75;;;;;;;;;;5117220;28;20470;-83
2023/07/17 05:35:31;;;;;;;7.75;4.40;;;;;;;;;;5117891;28;20044;-84
2023/07/17 05:37:59;;;;;;;11.75;4.30;;;;;;;;;;5120551;28;20060;-84
2023/07/17 05:40:26;;;;;;;6.05;4.07;;;;;;;;;;5120504;28;20080;-84
2023/07/17 05:42:56;;;;;;;5.20;3.72;;;;;;;;;;5118714;28;20097;-84
2023/07/17 05:45:23;;;;;;;7.57;4.45;;;;;;;;;;5117831;28;20051;-83
2023/07/17 05:47:51;;;;;;;6.63;4.07;;;;;;;;;;5119082;28;20047;-84
2023/07/17 05:50:19;;;;;;;5.18;3.88;;;;;;;;;;5116567;28;20039;-82
2023/07/17 05:52:46;;;;;;;7.78;3.85;;;;;;;;;;5116503;28;20073;-83
2023/07/17 05:55:13;;;;;;;7.50;4.10;;;;;;;;;;5117339;28;20109;-83
2023/07/17 05:57:41;;;;;;;6.90;4.07;;;;;;;;;;5115918;28;20058;-84
2023/07/17 06:00:11;;;;;;;4.05;3.58;;;;;;;;;;5116976;28;20047;-84
2023/07/17 06:02:38;;;;;;;11.55;4.22;;;;;;;;;;5116305;28;20044;-83
2023/07/17 06:05:05;;;;;;;7.38;3.75;;;;;;;;;;5116543;28;20078;-81
2023/07/17 06:07:33;;;;;;;5.85;4.07;;;;;;;;;;5116614;28;20089;-84
2023/07/17 06:10:00;;;;;;;6.35;3.88;;;;;;;;;;5115436;28;20039;-83
2023/07/17 06:12:28;;;;;;;4.65;3.47;;;;;;;;;;5115488;28;20044;-84
2023/07/17 06:14:55;;;;;;;6.47;3.75;;;;;;;;;;5117450;28;20047;-83
2023/07/17 06:17:22;;;;;;;5.55;3.40;;;;;;;;;;5116174;28;20458;-83
2023/07/17 06:19:50;;;;;;;11.20;4.00;;;;;;;;;;5115480;28;20138;-83
2023/07/17 06:22:17;;;;;;;5.15;3.65;;;;;;;;;;5114832;28;20081;-82
2023/07/17 06:24:44;;;;;;;7.05;3.95;;;;;;;;;;5115470;28;20435;-83
2023/07/17 06:27:12;;;;;;;8.48;4.25;;;;;;;;;;5114930;28;20114;-83
2023/07/17 06:29:39;;;;;;;3.85;3.35;;;;;;;;;;5115153;28;20503;-83
2023/07/17 06:32:07;;;;;;;5.07;3.65;;;;;;;;;;5115218;28;20044;-83
2023/07/17 06:34:35;;;;;;;6.10;3.25;;;;;;;;;;5115182;28;20419;-83
2023/07/17 06:37:03;;;;;;;5.93;3.03;;;;;;;;;;5114668;28;20044;-83
2023/07/17 06:39:32;;;;;;;5.43;3.17;;;;;;;;;;5116428;28;20051;-83
2023/07/17 06:42:00;;;;;;;5.53;2.67;;;;;;;;;;5119310;28;20043;-84
2023/07/17 06:44:27;;;;;;;5.45;2.78;;;;;;;;;;5114456;28;20101;-81
2023/07/17 06:46:54;;;;;;;3.72;2.30;;;;;;;;;;5113855;28;20039;-83
2023/07/17 06:49:21;;;;;;;6.80;3.10;;;;;;;;;;5113384;28;20047;-82
2023/07/17 06:51:50;;;;;;;8.07;2.75;;;;;;;;;;5113100;28;20119;-81
2023/07/17 06:54:17;;;;;;;6.07;2.65;;;;;;;;;;5113006;28;20043;-82
2023/07/17 06:56:45;;;;;;;4.38;2.67;;;;;;;;;;5114298;28;20043;-83
2023/07/17 06:59:13;;;;;;;7.65;3.28;;;;;;;;;;5111844;28;20054;-82
2023/07/17 07:01:40;;;;;;;6.50;2.70;;;;;;;;;;5113582;28;20101;-82
2023/07/17 07:04:07;;;;;;;8.40;2.70;;;;;;;;;;5112210;28;20054;-81
2023/07/17 07:06:34;;;;;;;5.05;3.13;;;;;;;;;;5113820;28;20052;-84
2023/07/17 07:09:02;;;;;;;5.35;2.72;;;;;;;;;;5113154;28;20070;-82
2023/07/17 07:11:29;;;;;;;9.15;3.95;;;;;;;;;;5112665;28;20095;-82
2023/07/17 07:13:56;;;;;;;5.18;2.85;;;;;;;;;;5112156;28;20093;-81
2023/07/17 07:16:24;;;;;;;4.65;2.60;;;;;;;;;;5111701;28;20098;-80
2023/07/17 07:18:51;;;;;;;4.45;2.85;;;;;;;;;;5112097;28;20080;-81
2023/07/17 07:21:18;;;;;;;4.32;2.63;;;;;;;;;;5114229;28;20060;-80
2023/07/17 07:23:46;;;;;;;6.13;2.92;;;;;;;;;;5112772;28;20051;-81
2023/07/17 07:26:13;;;;;;;4.15;2.65;;;;;;;;;;5112526;28;20062;-80
2023/07/17 07:28:40;;;;;;;4.65;3.00;;;;;;;;;;5113178;28;20058;-83
2023/07/17 07:31:08;;;;;;;3.88;3.10;;;;;;;;;;5113102;28;20147;-82
2023/07/17 07:33:36;;;;;;;7.18;3.00;;;;;;;;;;5113834;28;20039;-81
2023/07/17 07:36:03;;;;;;;4.97;2.70;;;;;;;;;;5112258;28;20052;-80
2023/07/17 07:38:31;;;;;;;4.82;2.63;;;;;;;;;;5113176;28;20048;-83
2023/07/17 07:41:00;;;;;;;4.07;2.63;;;;;;;;;;5113536;28;20396;-80
2023/07/17 07:43:28;;;;;;;5.32;2.72;;;;;;;;;;5113142;28;20047;-80
2023/07/17 07:45:55;;;;;;;5.28;2.88;;;;;;;;;;5112090;28;20517;-81
2023/07/17 07:48:22;;;;;;;6.22;2.72;;;;;;;;;;5114191;28;20506;-83
2023/07/17 07:50:49;;;;;;;3.60;2.67;;;;;;;;;;5114828;28;20040;-82
2023/07/17 07:53:17;;;;;;;5.88;2.72;;;;;;;;;;5114153;28;20047;-81
2023/07/17 07:55:44;;;;;;;3.35;2.70;;;;;;;;;;5113803;28;20522;-81
2023/07/17 07:58:11;;;;;;;4.65;2.92;;;;;;;;;;5112853;28;20051;-81
2023/07/17 08:00:38;;;;;;;7.10;3.55;;;;;;;;;;5112577;28;20495;-84
2023/07/17 08:03:06;;;;;;;6.28;2.67;;;;;;;;;;5112824;28;20055;-81
2023/07/17 08:05:33;;;;;;;3.67;2.90;;;;;;;;;;5112267;28;20058;-83
2023/07/17 08:08:00;;;;;;;4.22;2.85;;;;;;;;;;5112356;28;20044;-82
2023/07/17 08:10:28;;;;;;;6.78;2.88;;;;;;;;;;5114290;28;20043;-80
2023/07/17 08:12:55;;;;;;;5.68;3.30;;;;;;;;;;5116014;28;20044;-81
2023/07/17 08:15:22;;;;;;;3.58;2.65;;;;;;;;;;5116049;28;20490;-81
2023/07/17 08:17:50;;;;;;;7.07;3.10;;;;;;;;;;5117308;28;20051;-80
2023/07/17 08:20:18;;;;;;;5.53;3.05;;;;;;;;;;5123510;28;20101;-81
2023/07/17 08:22:46;;;;;;;6.10;3.10;;;;;;;;;;5122571;28;20096;-82
2023/07/17 08:25:14;;;;;;;6.07;3.00;;;;;;;;;;5119240;28;20055;-81
2023/07/17 08:27:41;;;;;;;6.78;2.63;;;;;;;;;;5120468;28;20132;-81
2023/07/17 08:30:08;;;;;;;5.57;3.92;;;;;;;;;;5117623;28;20074;-82
2023/07/17 08:32:35;;;;;;;4.25;2.92;;;;;;;;;;5117044;28;20445;-83
2023/07/17 08:35:03;;;;;;;6.30;2.83;;;;;;;;;;5116997;28;20043;-82
2023/07/17 08:37:30;;;;;;;8.43;2.92;;;;;;;;;;5116585;28;20043;-80
2023/07/17 08:39:57;;;;;;;29.38;17.80;;;;;;;;;;5117082;28;20048;-81
2023/07/17 08:42:24;;;;;;;6.00;3.58;;;;;;;;;;5115910;28;20075;-83
2023/07/17 08:44:53;;;;;;;9.45;3.92;;;;;;;;;;5118249;28;20093;-79
2023/07/17 08:47:20;;;;;;;4.88;2.83;;;;;;;;;;5115943;28;20053;-82
2023/07/17 08:49:48;;;;;;;8.90;3.05;;;;;;;;;;5115882;28;20040;-80
2023/07/17 08:52:15;;;;;;;9.88;5.55;;;;;;;;;;5115408;28;20556;-80
2023/07/17 08:54:42;;;;;;;4.60;3.13;;;;;;;;;;5116520;28;20104;-81
2023/07/17 08:57:11;;;;;;;5.15;3.22;;;;;;;;;;5117107;28;20047;-81
2023/07/17 08:59:38;;;;;;;13.38;3.35;;;;;;;;;;5115747;28;20051;-81
2023/07/17 09:02:05;;;;;;;13.25;9.25;;;;;;;;;;5116626;28;20056;-78
2023/07/17 09:04:34;;;;;;;5.13;2.30;;;;;;;;;;5115996;28;20075;-80
2023/07/17 09:07:01;;;;;;;7.15;2.63;;;;;;;;;;5115982;28;20100;-79
2023/07/17 09:09:29;;;;;;;8.57;5.20;;;;;;;;;;5114588;28;20051;-81
2023/07/17 09:12:15;;;;;;;8.43;6.53;;;;;;;;;;5114550;28;20054;-81
2023/07/17 09:14:43;;;;;;;7.63;2.72;;;;;;;;;;5114952;28;20427;-81
2023/07/17 09:17:10;;;;;;;4.43;2.15;;;;;;;;;;5115950;28;20044;-79
2023/07/17 09:19:38;;;;;;;6.35;4.97;;;;;;;;;;5114311;28;20423;-81
2023/07/17 09:22:07;;;;;;;5.13;2.47;;;;;;;;;;5115261;28;20115;-83
2023/07/17 09:24:36;;;;;;;5.93;3.08;;;;;;;;;;5115838;28;20044;-80
2023/07/17 09:27:07;;;;;;;6.28;2.47;;;;;;;;;;5114062;28;20051;-82
2023/07/17 09:29:34;;;;;;;8.77;3.25;;;;;;;;;;5114531;28;20131;-82
2023/07/17 09:32:15;;;;;;;6.47;2.10;;;;;;;;;;5114307;28;20040;-80
2023/07/17 09:34:42;;;;;;;12.20;2.92;;;;;;;;;;5115165;28;20062;-82
2023/07/17 09:37:10;;;;;;;4.88;1.88;;;;;;;;;;5113768;28;20043;-79
2023/07/17 09:39:38;;;;;;;4.90;2.00;;;;;;;;;;5115617;27;20058;-80
2023/07/17 09:42:05;;;;;;;2.60;1.55;;;;;;;;;;5114206;28;20488;-80
2023/07/17 09:44:33;;;;;;;2.25;1.80;;;;;;;;;;5115441;28;20051;-80
2023/07/17 09:47:00;;;;;;;8.02;2.20;;;;;;;;;;5114501;28;20059;-80
2023/07/17 09:49:28;;;;;;;2.28;1.70;;;;;;;;;;5115220;28;20096;-80
2023/07/17 09:51:56;;;;;;;3.53;1.95;;;;;;;;;;5113086;28;20047;-81
2023/07/17 09:54:24;;;;;;;2.67;1.75;;;;;;;;;;5114194;28;20047;-81
2023/07/17 09:56:52;;;;;;;1.95;1.52;;;;;;;;;;5113759;28;20130;-80
2023/07/17 09:59:20;;;;;;;3.20;1.80;;;;;;;;;;5116895;28;20047;-81
2023/07/17 10:01:48;;;;;;;3.28;1.73;;;;;;;;;;5122356;28;20047;-82
2023/07/17 10:04:17;;;;;;;2.60;1.60;;;;;;;;;;5121049;28;20054;-80
2023/07/17 10:06:47;;;;;;;2.45;1.88;;;;;;;;;;5121139;28;20077;-80
2023/07/17 10:09:14;;;;;;;4.95;1.80;;;;;;;;;;5119880;28;20069;-82
2023/07/17 10:11:42;;;;;;;2.83;1.92;;;;;;;;;;5119877;28;20078;-83
2023/07/17 10:14:09;;;;;;;2.67;1.63;;;;;;;;;;5118402;28;20051;-82
2023/07/17 10:16:37;;;;;;;4.75;1.73;;;;;;;;;;5117896;28;20422;-82
2023/07/17 10:19:04;;;;;;;2.63;1.65;;;;;;;;;;5117785;28;20122;-82
2023/07/17 10:21:31;;;;;;;3.38;1.95;;;;;;;;;;5118396;28;20043;-81
2023/07/17 10:24:05;;;;;;;3.05;1.70;;;;;;;;;;5116875;28;20047;-80
2023/07/17 10:26:32;;;;;;;2.75;1.70;;;;;;;;;;5116569;28;20056;-80
2023/07/17 10:29:02;;;;;;;3.55;2.00;;;;;;;;;;5116012;28;20040;-81
2023/07/17 10:31:31;;;;;;;3.85;1.67;;;;;;;;;;5117268;28;20040;-82
2023/07/17 10:34:00;;;;;;;2.38;1.85;;;;;;;;;;5115952;28;20104;-81
2023/07/17 10:36:44;;;;;;;4.53;2.05;;;;;;;;;;5115279;28;20048;-82
2023/07/17 10:39:26;;;;;;;2.08;1.75;;;;;;;;;;5119204;28;20044;-80
2023/07/17 10:41:53;;;;;;;2.80;2.08;;;;;;;;;;5120498;28;20050;-81
2023/07/17 10:44:21;;;;;;;3.63;2.00;;;;;;;;;;5122870;28;20077;-79
2023/07/17 10:46:48;;;;;;;4.90;2.53;;;;;;;;;;5120799;28;20039;-78
2023/07/17 10:49:16;;;;;;;4.55;2.00;;;;;;;;;;5119764;28;20055;-80
2023/07/17 10:51:51;;;;;;;2.65;1.95;;;;;;;;;;5120690;27;20127;-82
2023/07/17 10:54:19;;;;;;;2.78;2.10;;;;;;;;;;5119033;28;20043;-80
2023/07/17 10:56:48;;;;;;;3.88;2.15;;;;;;;;;;5118598;28;20047;-84
2023/07/17 10:59:16;;;;;;;2.83;1.88;;;;;;;;;;5116649;28;20509;-80
2023/07/17 11:01:44;;;;;;;3.30;2.03;;;;;;;;;;5117936;28;20051;-81
2023/07/17 11:04:12;;;;;;;3.00;2.10;;;;;;;;;;5115907;28;20059;-80
2023/07/17 11:06:40;;;;;;;3.20;2.10;;;;;;;;;;5118304;28;20047;-81
2023/07/17 11:09:08;;;;;;;5.93;2.85;;;;;;;;;;5118629;28;20096;-79
2023/07/17 11:11:35;;;;;;;2.53;2.00;;;;;;;;;;5119025;28;20404;-81
2023/07/17 11:14:04;;;;;;;3.33;2.13;;;;;;;;;;5117080;28;20055;-80
2023/07/17 11:16:33;;;;;;;4.72;2.20;;;;;;;;;;5119096;27;20138;-81
2023/07/17 11:19:03;;;;;;;4.55;2.10;;;;;;;;;;5116536;28;20138;-81
2023/07/17 11:21:32;;;;;;;5.35;2.30;;;;;;;;;;5117671;28;20134;-80
2023/07/17 11:24:01;;;;;;;5.57;2.40;;;;;;;;;;5117030;28;20097;-81
2023/07/17 11:26:34;;;;;;;3.95;2.50;;;;;;;;;;5115236;28;20079;-78
2023/07/17 11:29:02;;;;;;;2.33;2.13;;;;;;;;;;5116107;28;20077;-79
2023/07/17 11:31:31;;;;;;;3.30;2.30;;;;;;;;;;5116555;28;20043;-81
2023/07/17 11:34:04;;;;;;;3.80;2.65;;;;;;;;;;5116888;28;20055;-82
2023/07/17 11:36:33;;;;;;;8.32;2.70;;;;;;;;;;5116226;28;20094;-80
2023/07/17 11:39:10;;;;;;;4.50;2.35;;;;;;;;;;5118206;28;20043;-80
2023/07/17 11:41:48;;;;;;;6.47;2.80;;;;;;;;;;5120551;28;20052;-84
2023/07/17 11:44:26;;;;;;;3.50;2.40;;;;;;;;;;5119285;28;20487;-81
2023/07/17 11:46:58;;;;;;;6.45;2.72;;;;;;;;;;5121869;28;20052;-80
2023/07/17 11:49:26;;;;;;;3.78;2.40;;;;;;;;;;5123056;28;20462;-83
2023/07/17 11:51:56;;;;;;;7.60;2.35;;;;;;;;;;5123737;27;20053;-80
2023/07/17 11:54:30;;;;;;;3.08;2.03;;;;;;;;;;5122114;28;20052;-81
2023/07/17 11:57:03;;;;;;;5.53;2.22;;;;;;;;;;5120880;28;20047;-82
2023/07/17 11:59:31;;;;;;;6.65;2.55;;;;;;;;;;5120953;28;20056;-82
2023/07/17 12:01:59;;;;;;;12.70;2.75;;;;;;;;;;5119927;28;20100;-80
2023/07/17 12:04:33;;;;;;;3.08;2.60;;;;;;;;;;5120479;28;20051;-81
2023/07/17 12:07:01;;;;;;;4.28;2.38;;;;;;;;;;5120066;28;20043;-80
2023/07/17 12:09:29;;;;;;;4.00;2.38;;;;;;;;;;5120146;28;20047;-81
2023/07/17 12:11:56;;;;;;;5.68;2.70;;;;;;;;;;5118332;28;20159;-78
2023/07/17 12:14:23;;;;;;;3.97;2.60;;;;;;;;;;5120198;28;20047;-80
2023/07/17 12:16:50;;;;;;;6.60;2.80;;;;;;;;;;5120160;28;20567;-82
2023/07/17 12:19:19;;;;;;;6.47;2.78;;;;;;;;;;5120134;27;20051;-80
2023/07/17 12:21:47;;;;;;;4.30;2.17;;;;;;;;;;5119292;28;20056;-80
2023/07/17 12:24:14;;;;;;;4.22;2.85;;;;;;;;;;5118965;28;20047;-80
2023/07/17 12:26:41;;;;;;;5.50;3.03;;;;;;;;;;5118438;28;20469;-82
2023/07/17 12:29:10;;;;;;;4.10;2.33;;;;;;;;;;5119024;28;20050;-80
2023/07/17 12:31:37;;;;;;;3.92;2.63;;;;;;;;;;5117351;28;20131;-80
2023/07/17 12:34:05;;;;;;;5.60;2.53;;;;;;;;;;5117330;28;20051;-80
2023/07/17 12:36:32;;;;;;;4.45;2.40;;;;;;;;;;5117687;28;20524;-80
2023/07/17 12:39:26;;;;;;;5.68;2.78;;;;;;;;;;5119100;28;20105;-82
2023/07/17 12:41:53;;;;;;;;;;;;;;;;;;5117326;28;20059;-78
2023/07/17 12:44:20;;;;;;;5.03;2.53;;;;;;;;;;5117038;28;20014;-80
2023/07/17 12:46:48;;;;;;;9.77;2.80;;;;;;;;;;5118418;28;20052;-79
2023/07/17 12:49:15;;;;;;;3.88;2.13;;;;;;;;;;5117444;28;20121;-81
2023/07/17 12:51:42;;;;;;;8.00;2.92;;;;;;;;;;5118119;28;20043;-81
2023/07/17 12:54:09;;;;;;;5.20;2.55;;;;;;;;;;5117044;28;20044;-81
2023/07/17 12:56:39;;;;;;;5.25;2.83;;;;;;;;;;5115563;28;20461;-79
2023/07/17 12:59:06;;;;;;;3.35;2.60;;;;;;;;;;5118139;28;20056;-81
2023/07/17 13:01:34;;;;;;;3.95;2.53;;;;;;;;;;5116984;28;20419;-81
2023/07/17 13:04:02;;;;;;;3.28;2.38;;;;;;;;;;5119001;28;20071;-81
2023/07/17 13:06:29;;;;;;;3.60;2.33;;;;;;;;;;5115982;28;20047;-79
2023/07/17 13:08:56;;;;;;;4.20;2.15;;;;;;;;;;5117976;28;20461;-81
2023/07/17 13:11:24;;;;;;;3.05;2.50;;;;;;;;;;5116851;28;20100;-79
2023/07/17 13:13:51;;;;;;;8.63;2.95;;;;;;;;;;5116378;28;20058;-81
2023/07/17 13:16:18;;;;;;;6.88;2.50;;;;;;;;;;5117870;28;20047;-82
2023/07/17 13:18:46;;;;;;;4.78;2.50;;;;;;;;;;5119216;27;20113;-80
2023/07/17 13:21:13;;;;;;;5.20;2.50;;;;;;;;;;5121322;28;20077;-81
2023/07/17 13:23:40;;;;;;;3.88;2.50;;;;;;;;;;5123974;28;20039;-83
2023/07/17 13:26:07;;;;;;;4.57;2.40;;;;;;;;;;5119887;28;20101;-83
2023/07/17 13:28:35;;;;;;;5.65;2.50;;;;;;;;;;5122847;28;20043;-82
2023/07/17 13:31:03;;;;;;;8.82;2.60;;;;;;;;;;5119904;28;20043;-81
2023/07/17 13:33:37;;;;;;;6.03;2.60;;;;;;;;;;5120105;28;20116;-80
2023/07/17 13:36:05;;;;;;;8.05;2.78;;;;;;;;;;5119560;28;20483;-83
2023/07/17 13:38:32;;;;;;;3.63;2.95;;;;;;;;;;5119217;28;20503;-84
2023/07/17 13:40:59;;;;;;;4.50;2.60;;;;;;;;;;5120783;28;20430;-80
2023/07/17 13:43:42;;;;;;;3.95;2.53;;;;;;;;;;5118129;28;20051;-80
2023/07/17 13:46:09;;;;;;;5.65;2.53;;;;;;;;;;5117792;28;20059;-81
2023/07/17 13:48:36;;;;;;;3.40;2.90;;;;;;;;;;5117447;28;20055;-80
2023/07/17 13:51:04;;;;;;;6.65;2.70;;;;;;;;;;5118252;28;20113;-81
2023/07/17 13:53:31;;;;;;;7.78;3.00;;;;;;;;;;5117288;28;20100;-80
2023/07/17 13:55:58;;;;;;;6.00;2.70;;;;;;;;;;5117929;28;20048;-81
2023/07/17 13:58:25;;;;;;;3.10;2.80;;;;;;;;;;5118303;28;20043;-80
2023/07/17 14:00:53;;;;;;;3.85;2.42;;;;;;;;;;5117134;28;20093;-80
2023/07/17 14:03:20;;;;;;;3.63;2.67;;;;;;;;;;5118262;28;20051;-80
2023/07/17 14:05:47;;;;;;;5.63;2.88;;;;;;;;;;5115310;28;20083;-80
2023/07/17 14:08:15;;;;;;;3.22;2.70;;;;;;;;;;5117406;28;20047;-82
2023/07/17 14:10:42;;;;;;;4.30;3.00;;;;;;;;;;5115280;28;20040;-79
2023/07/17 14:13:09;;;;;;;10.88;2.97;;;;;;;;;;5118012;28;20048;-79
2023/07/17 14:15:37;;;;;;;4.85;2.78;;;;;;;;;;5117031;28;20044;-79
2023/07/17 14:18:05;;;;;;;4.28;2.70;;;;;;;;;;5114422;28;20082;-81
2023/07/17 14:20:32;;;;;;;3.55;2.33;;;;;;;;;;5114340;28;20048;-79
2023/07/17 14:22:59;;;;;;;4.03;2.63;;;;;;;;;;5113575;28;20415;-80
2023/07/17 14:25:27;;;;;;;4.70;2.92;;;;;;;;;;5113513;28;20128;-81
2023/07/17 14:27:54;;;;;;;4.28;2.50;;;;;;;;;;5111349;28;20051;-78
2023/07/17 14:30:21;;;;;;;5.25;2.97;;;;;;;;;;5112628;28;20074;-81
2023/07/17 14:32:48;;;;;;;4.28;2.42;;;;;;;;;;5115072;28;20048;-80
2023/07/17 14:35:16;;;;;;;8.75;2.90;;;;;;;;;;5113198;28;20055;-84
2023/07/17 14:37:43;;;;;;;4.88;2.58;;;;;;;;;;5114513;28;20073;-80
2023/07/17 14:40:10;;;;;;;7.55;2.92;;;;;;;;;;5113062;28;20047;-79
2023/07/17 14:42:37;;;;;;;4.93;2.38;;;;;;;;;;5112699;28;20400;-79
2023/07/17 14:45:05;;;;;;;6.97;3.33;;;;;;;;;;5114003;28;20051;-80
2023/07/17 14:47:33;;;;;;;4.95;2.95;;;;;;;;;;5113182;28;20055;-82